Gurgaon HR Speed Test Log

Averages  Max Speed    
1 to 25 of 12130** for City Gurgaon HR
Time
  
    Size    Speed   User ConnectID Provider    
9/18/19 7:27:22 pm 19 MB 19.7 Mbps 2.46 MB/s950158494138Amogh 5bHo65zuL 
9/18/19 7:27:06 pm 83.7 MB 30.55 Mbps 3.82 MB/s950158494138Amogh OG1lOV7T4 
9/18/19 6:17:41 pm 62.9 MB 122.12 Mbps 15.27 MB/s9617316711857Google PimM1v6nj 
9/18/19 6:17:31 pm 200 MB 270.44 Mbps 33.81 MB/s9617316711857Google tr5bhfmYS 
9/18/19 4:32:08 pm 4.3 MB 4.96 Mbps 620 kB/s1858494306286R2 Net 8B8HJHqun 
9/18/19 4:31:55 pm 20.8 MB 26.29 Mbps 3.29 MB/s1858494306286R2 Net nzvjv8Xss 
9/18/19 2:45:56 pm 18.7 MB 10.93 Mbps 1.37 MB/sSachin Sharma1862718482493Shyam xpgUzvh7U 
9/18/19 2:45:34 pm 12.9 MB 9.61 Mbps 1.2 MB/sSachin Sharma1862718482493Shyam 0XMKN3Cgc 
9/18/19 2:44:57 pm 22.6 MB 24.98 Mbps 3.12 MB/sSachin Sharma1862718482493Shyam yGqzj9N9M 
9/18/19 2:33:29 pm 2.5 MB 2.92 Mbps 365 kB/s1573751945468Airtel oxy~_GHRc 
9/18/19 2:10:19 pm 21.3 MB 26.46 Mbps 3.31 MB/s137778926567Tripleplay S9zNFyBXD 
9/18/19 1:49:43 pm 6.3 MB 13 Mbps 1.62 MB/s1055631542723Tata q6KiYVpbE 
9/18/19 1:49:33 pm 22.1 MB 13.87 Mbps 1.73 MB/s1055631542723Tata 1b-q4cAXM 
9/18/19 12:00:45 pm 1.1 MB 398 kbps 50 kB/s11480940988Bharti r8FMiVD24 
9/18/19 10:53:51 am 6.6 MB 7.91 Mbps 989 kB/s950158493129Amogh Wn1UWTlL3 
9/18/19 10:52:58 am 6.5 MB 8.88 Mbps 1.11 MB/s950158493129Amogh 14iFXsjJ3 
9/18/19 9:34:50 am 61.3 MB 71.28 Mbps 8.91 MB/s186078393835Amdocs 6id6sSjAD 
9/18/19 9:34:37 am 58.9 MB 12.5 Mbps 1.56 MB/s186078393835Amdocs sIqA9R25- 
9/18/19 8:13:22 am 75 MB 29.43 Mbps 3.68 MB/s1376748965394Tripleplay gq0LPrrIe 
9/18/19 7:31:18 am 1 MB 826 kbps 103 kB/s186078384573Amdocs 53gpuAwMU 
9/18/19 6:31:49 am 1.2 MB 1.87 Mbps 233 kB/s11204165650895Airtel Ddwdzke9C 
9/18/19 6:31:39 am 14.3 MB 13.15 Mbps 1.64 MB/s11204165650895Airtel oCxD~Kllk 
9/18/19 5:50:02 am 38.5 MB 19.64 Mbps 2.46 MB/s13631302425Symantec 0nrG-Rs1~ 
9/18/19 5:49:41 am 42.5 MB 26.83 Mbps 3.35 MB/s13631302425Symantec PXWEl6GRM 
9/18/19 5:11:46 am 36.3 MB 37.17 Mbps 4.65 MB/s13631302425Symantec Id8h2RQLC 
  
** Partial Results: The most recent results have been displayed. Results over 50 Mbps are highlighted.
Calculated from graphed results above not entire query.
Displaying Internet Speed Test results for City Gurgaon HR

Minimum

Min 0.4 Mbps : 0.83 Mbps

Average

Avg 35.81 Mbps : 27.67 Mbps

Maximum

Max 270.44 Mbps : 122.12 Mbps

Minimum

Min: 0.4 Mbps : 0.83 Mbps |

Average

Avg: 35.81 Mbps : 27.67 Mbps |

Maximum

Max: 270.44 Mbps : 122.12 Mbps